createdAt,value
2023-04-12T00:01:01.451Z,94108.28
2023-04-12T00:03:28.196Z,94088.09
2023-04-12T00:05:55.341Z,94097.31
2023-04-12T00:08:33.633Z,94094.75
2023-04-12T00:11:02.143Z,94095.34
2023-04-12T00:13:29.853Z,94094.75
2023-04-12T00:15:56.656Z,94093.66
2023-04-12T00:18:25.347Z,94102.06
2023-04-12T00:20:52.610Z,94094.03
2023-04-12T00:23:19.340Z,94080.00
2023-04-12T00:25:46.407Z,94072.41
2023-04-12T00:28:13.085Z,94085.91
2023-04-12T00:30:41.300Z,94085.03
2023-04-12T00:33:08.496Z,94081.84
2023-04-12T00:35:35.179Z,94065.56
2023-04-12T00:38:03.721Z,94080.72
2023-04-12T00:40:30.835Z,94073.78
2023-04-12T00:42:57.941Z,94080.34
2023-04-12T00:45:24.526Z,94087.91
2023-04-12T00:47:51.310Z,94071.41
2023-04-12T00:50:18.280Z,94082.38
2023-04-12T00:52:45.219Z,94072.44
2023-04-12T00:55:12.061Z,94079.81
2023-04-12T00:57:40.512Z,94081.91
2023-04-12T01:00:13.147Z,94081.31
2023-04-12T01:02:50.566Z,94061.19
2023-04-12T01:05:23.845Z,94058.59
2023-04-12T01:08:28.461Z,94083.47
2023-04-12T01:11:17.999Z,94080.56
2023-04-12T01:13:59.805Z,94068.50
2023-04-12T01:16:41.535Z,94075.97
2023-04-12T01:19:47.647Z,94081.97
2023-04-12T01:22:27.083Z,94071.19
2023-04-12T01:25:34.379Z,94073.78
2023-04-12T01:28:03.504Z,94069.00
2023-04-12T01:30:31.796Z,94061.94
2023-04-12T01:33:01.894Z,94073.50
2023-04-12T01:35:30.936Z,94070.72
2023-04-12T01:37:58.855Z,94070.66
2023-04-12T01:40:28.139Z,94077.56
2023-04-12T01:43:11.634Z,94064.56
2023-04-12T01:45:39.069Z,94080.69
2023-04-12T01:48:09.292Z,94071.63
2023-04-12T01:50:41.585Z,94075.34
2023-04-12T01:53:14.107Z,94075.81
2023-04-12T01:55:45.967Z,94064.00
2023-04-12T01:58:14.914Z,94069.44
2023-04-12T02:00:44.459Z,94062.69
2023-04-12T02:03:12.879Z,94063.44
2023-04-12T02:05:39.932Z,94037.16
2023-04-12T02:08:06.971Z,94059.69
2023-04-12T02:10:36.585Z,94057.78
2023-04-12T02:13:04.395Z,94056.19
2023-04-12T02:15:31.461Z,94057.09
2023-04-12T02:17:59.513Z,94062.53
2023-04-12T02:20:27.279Z,94054.31
2023-04-12T02:22:54.308Z,94038.44
2023-04-12T02:25:21.375Z,94047.47
2023-04-12T02:27:48.911Z,94043.59
2023-04-12T02:30:15.739Z,94040.69
2023-04-12T02:32:45.337Z,94061.31
2023-04-12T02:35:19.210Z,94060.44
2023-04-12T02:37:48.669Z,94043.59
2023-04-12T02:40:18.578Z,94049.13
2023-04-12T02:42:45.758Z,94038.97
2023-04-12T02:45:12.379Z,94043.66
2023-04-12T02:47:40.303Z,94027.38
2023-04-12T02:50:07.808Z,94037.53
2023-04-12T02:52:34.532Z,94036.03
2023-04-12T02:55:01.259Z,94038.56
2023-04-12T02:57:27.871Z,94031.00
2023-04-12T02:59:55.009Z,94043.94
2023-04-12T03:02:22.940Z,94038.97
2023-04-12T03:04:53.394Z,94035.66
2023-04-12T03:07:21.380Z,94041.69
2023-04-12T03:09:50.184Z,94042.31
2023-04-12T03:12:17.167Z,94042.59
2023-04-12T03:14:43.904Z,94039.78
2023-04-12T03:17:11.098Z,94043.19
2023-04-12T03:19:37.827Z,94044.41
2023-04-12T03:22:06.125Z,94052.00
2023-04-12T03:24:37.211Z,94043.38
2023-04-12T03:27:05.453Z,94028.94
2023-04-12T03:29:32.719Z,94046.09
2023-04-12T03:31:59.676Z,94066.59
2023-04-12T03:34:32.218Z,94058.72
2023-04-12T03:37:02.438Z,94060.41
2023-04-12T03:39:29.226Z,94048.72
2023-04-12T03:41:56.126Z,94047.72
2023-04-12T03:44:26.159Z,94056.88
2023-04-12T03:46:53.099Z,94065.00
2023-04-12T03:49:19.932Z,94059.59
2023-04-12T03:51:46.642Z,94046.66
2023-04-12T03:54:13.337Z,94066.22
2023-04-12T03:56:40.057Z,94050.41
2023-04-12T03:59:10.036Z,94062.84
2023-04-12T04:01:37.320Z,94065.41
2023-04-12T04:04:04.501Z,94068.56
2023-04-12T04:06:31.438Z,94072.69
2023-04-12T04:08:58.516Z,94064.06
2023-04-12T04:11:25.656Z,94077.09
2023-04-12T04:13:52.464Z,94076.81
2023-04-12T04:16:19.395Z,94077.56
2023-04-12T04:18:46.261Z,94096.78
2023-04-12T04:21:14.321Z,94076.00
2023-04-12T04:23:45.130Z,94082.06
2023-04-12T04:26:12.492Z,94091.63
2023-04-12T04:28:42.249Z,94088.78
2023-04-12T04:31:10.522Z,94083.81
2023-04-12T04:33:39.042Z,94102.97
2023-04-12T04:36:09.885Z,94094.63
2023-04-12T04:38:36.769Z,94100.44
2023-04-12T04:41:03.634Z,94100.91
2023-04-12T04:43:31.361Z,94111.88
2023-04-12T04:45:58.434Z,94110.84
2023-04-12T04:48:25.213Z,94103.13
2023-04-12T04:50:51.832Z,94105.78
2023-04-12T04:53:20.107Z,94114.88
2023-04-12T04:55:47.844Z,94110.78
2023-04-12T04:58:16.225Z,94117.56
2023-04-12T05:00:44.947Z,94119.06
2023-04-12T05:03:12.133Z,94118.59
2023-04-12T05:05:39.184Z,94115.00
2023-04-12T05:08:06.292Z,94142.50
2023-04-12T05:10:33.220Z,94128.66
2023-04-12T05:12:59.865Z,94118.38
2023-04-12T05:15:26.493Z,94131.22
2023-04-12T05:17:53.164Z,94131.03
2023-04-12T05:20:19.945Z,94131.72
2023-04-12T05:22:46.683Z,94144.34
2023-04-12T05:25:13.440Z,94121.47
2023-04-12T05:27:40.160Z,94134.22
2023-04-12T05:30:08.044Z,94141.94
2023-04-12T05:32:34.751Z,94139.09
2023-04-12T05:35:01.758Z,94128.72
2023-04-12T05:37:28.603Z,94127.22
2023-04-12T05:39:58.264Z,94128.44
2023-04-12T05:42:24.946Z,94132.00
2023-04-12T05:44:52.016Z,94117.84
2023-04-12T05:47:18.710Z,94136.38
2023-04-12T05:49:45.533Z,94106.38
2023-04-12T05:52:12.156Z,94137.53
2023-04-12T05:54:38.777Z,94133.59
2023-04-12T05:57:05.703Z,94147.28
2023-04-12T05:59:32.305Z,94147.13
2023-04-12T06:01:59.347Z,94141.50
2023-04-12T06:04:42.166Z,94131.84
2023-04-12T06:09:42.224Z,94170.25
2023-04-12T06:12:08.820Z,94175.13
2023-04-12T06:14:35.479Z,94174.03
2023-04-12T06:17:02.183Z,94176.69
2023-04-12T06:19:28.899Z,94176.56
2023-04-12T06:21:55.536Z,94187.16
2023-04-12T06:24:22.235Z,94189.19
2023-04-12T06:26:48.880Z,94177.41
2023-04-12T06:29:15.595Z,94167.69
2023-04-12T06:31:42.320Z,94162.44
2023-04-12T06:34:09.004Z,94176.66
2023-04-12T06:36:35.644Z,94164.56
2023-04-12T06:39:03.205Z,94166.34
2023-04-12T06:41:29.825Z,94149.69
2023-04-12T06:43:56.466Z,94149.75
2023-04-12T06:46:27.605Z,94161.66
2023-04-12T06:48:54.390Z,94160.16
2023-04-12T06:51:21.092Z,94148.47
2023-04-12T06:53:47.930Z,94140.03
2023-04-12T06:56:16.014Z,94137.53
2023-04-12T06:58:44.900Z,94133.59
2023-04-12T07:01:11.580Z,94133.59
2023-04-12T07:03:39.044Z,94147.50
2023-04-12T07:06:21.472Z,94139.47
2023-04-12T07:08:51.488Z,94147.66
2023-04-12T07:11:21.345Z,94151.03
2023-04-12T07:13:48.904Z,94154.66
2023-04-12T07:16:16.395Z,94114.16
2023-04-12T07:18:42.961Z,94160.69
2023-04-12T07:21:09.681Z,94179.47
2023-04-12T07:23:36.289Z,94164.75
2023-04-12T07:26:02.956Z,94156.66
2023-04-12T07:28:29.685Z,94138.34
2023-04-12T07:30:56.319Z,94128.31
2023-04-12T07:33:23.381Z,94134.19
2023-04-12T07:35:50.087Z,94138.88
2023-04-12T07:38:17.154Z,94144.50
2023-04-12T07:40:43.974Z,94126.13
2023-04-12T07:43:10.682Z,94111.19
2023-04-12T07:45:38.182Z,94134.50
2023-04-12T07:48:05.770Z,94127.78
2023-04-12T07:50:32.553Z,94125.28
2023-04-12T07:53:21.492Z,94111.00
2023-04-12T07:55:48.183Z,94138.16
2023-04-12T07:58:16.018Z,94112.22
2023-04-12T08:00:43.453Z,94127.69
2023-04-12T08:03:12.952Z,94089.47
2023-04-12T08:05:40.281Z,94120.41
2023-04-12T08:08:08.536Z,94115.16
2023-04-12T08:10:35.169Z,94117.06
2023-04-12T08:13:01.862Z,94094.41
2023-04-12T08:15:28.495Z,94110.59
2023-04-12T08:17:55.424Z,94119.66
2023-04-12T08:20:22.128Z,94121.50
2023-04-12T08:22:49.536Z,94096.81
2023-04-12T08:25:16.458Z,94110.88
2023-04-12T08:27:43.573Z,94093.06
2023-04-12T08:30:11.705Z,94114.31
2023-04-12T08:32:39.334Z,94104.56
2023-04-12T08:35:07.113Z,94112.19
2023-04-12T08:37:34.343Z,94085.84
2023-04-12T08:40:04.943Z,94110.72
2023-04-12T08:42:34.262Z,94106.94
2023-04-12T08:45:06.336Z,94074.63
2023-04-12T08:47:37.084Z,94097.84
2023-04-12T08:50:08.230Z,94112.41
2023-04-12T08:52:36.537Z,94083.56
2023-04-12T08:55:04.381Z,94089.59
2023-04-12T08:57:32.903Z,94083.75
2023-04-12T09:00:04.850Z,94086.69
2023-04-12T09:02:31.893Z,94080.09
2023-04-12T09:04:58.825Z,94083.16
2023-04-12T09:07:30.557Z,94062.66
2023-04-12T09:09:58.860Z,94084.41
2023-04-12T09:12:25.975Z,94086.00
2023-04-12T09:15:13.581Z,94068.28
2023-04-12T09:17:42.602Z,93998.03
2023-04-12T09:20:12.356Z,94049.59
2023-04-12T09:22:44.328Z,94040.66
2023-04-12T09:25:11.873Z,94057.72
2023-04-12T09:27:52.076Z,94038.47
2023-04-12T09:30:20.139Z,94048.22
2023-04-12T09:32:51.028Z,94052.47
2023-04-12T09:35:18.084Z,94047.53
2023-04-12T09:37:44.758Z,94040.59
2023-04-12T09:40:11.987Z,94024.56
2023-04-12T09:42:56.286Z,94025.28
2023-04-12T09:45:25.529Z,94011.97
2023-04-12T09:47:54.033Z,94009.50
2023-04-12T09:50:26.618Z,93972.88
2023-04-12T09:52:54.966Z,94009.56
2023-04-12T09:55:23.638Z,93962.69
2023-04-12T09:57:52.378Z,94015.25
2023-04-12T10:00:22.483Z,94009.53
2023-04-12T10:02:53.789Z,94002.94
2023-04-12T10:05:25.285Z,94023.72
2023-04-12T10:07:53.081Z,94003.88
2023-04-12T10:10:21.192Z,93966.59
2023-04-12T10:12:49.138Z,94026.25
2023-04-12T10:15:21.846Z,94008.69
2023-04-12T10:17:53.949Z,93967.38
2023-04-12T10:20:24.781Z,94016.56
2023-04-12T10:22:53.500Z,94000.53
2023-04-12T10:25:22.762Z,93932.16
2023-04-12T10:27:49.892Z,94006.53
2023-04-12T10:30:23.404Z,94003.53
2023-04-12T10:33:10.414Z,94006.53
2023-04-12T10:35:58.003Z,93954.81
2023-04-12T10:38:26.949Z,93972.25
2023-04-12T10:41:15.791Z,93994.88
2023-04-12T10:43:52.094Z,93986.63
2023-04-12T10:46:41.024Z,94009.50
2023-04-12T10:49:09.864Z,94016.25
2023-04-12T10:51:36.728Z,93978.97
2023-04-12T10:54:12.458Z,93982.38
2023-04-12T10:56:47.682Z,93984.66
2023-04-12T10:59:16.703Z,93981.94
2023-04-12T11:02:10.557Z,93985.41
2023-04-12T11:04:37.587Z,93975.22
2023-04-12T11:07:10.218Z,93983.88
2023-04-12T11:09:36.857Z,93985.63
2023-04-12T11:12:08.784Z,93977.41
2023-04-12T11:14:38.773Z,93952.00
2023-04-12T11:17:08.521Z,93985.41
2023-04-12T11:19:40.205Z,93973.44
2023-04-12T11:22:09.307Z,93979.63
2023-04-12T11:24:59.905Z,93955.31
2023-04-12T11:27:27.789Z,93968.00
2023-04-12T11:29:56.835Z,93952.59
2023-04-12T11:32:26.451Z,93987.59
2023-04-12T11:34:55.546Z,93983.38
2023-04-12T11:37:23.343Z,93955.06
2023-04-12T11:39:55.995Z,93967.75
2023-04-12T11:42:27.294Z,93960.31
2023-04-12T11:44:59.851Z,93986.13
2023-04-12T11:47:30.187Z,93954.84
2023-04-12T11:49:59.006Z,93978.69
2023-04-12T11:52:30.750Z,93972.72
2023-04-12T11:55:01.428Z,93981.41
2023-04-12T11:57:29.277Z,93977.97
2023-04-12T11:59:58.822Z,93960.81
2023-04-12T12:02:29.124Z,93977.47
2023-04-12T12:04:58.947Z,93922.03
2023-04-12T12:07:26.732Z,93982.69
2023-04-12T12:09:54.037Z,93999.81
2023-04-12T12:12:24.130Z,93976.66
2023-04-12T12:14:50.912Z,93944.06
2023-04-12T12:17:17.664Z,93983.88
2023-04-12T12:19:45.783Z,93978.09
2023-04-12T12:22:20.708Z,93993.78
2023-04-12T12:25:00.398Z,93988.09
2023-04-12T12:27:43.335Z,93975.63
2023-04-12T12:30:12.298Z,93921.03
2023-04-12T12:32:40.548Z,93940.13
2023-04-12T12:35:12.171Z,93962.00
2023-04-12T12:37:56.085Z,93973.91
2023-04-12T12:40:32.456Z,93983.44
2023-04-12T12:43:00.330Z,93966.78
2023-04-12T12:45:29.188Z,93950.59
2023-04-12T12:48:05.177Z,93960.50
2023-04-12T12:50:34.226Z,93976.63
2023-04-12T12:53:02.316Z,93976.88
2023-04-12T12:55:31.000Z,93980.63
2023-04-12T13:00:29.428Z,93918.69
2023-04-12T13:02:56.672Z,93966.19
2023-04-12T13:05:23.764Z,93983.16
2023-04-12T13:07:50.611Z,93981.16
2023-04-12T13:10:17.516Z,93987.56
2023-04-12T13:12:44.140Z,93931.41
2023-04-12T13:15:22.035Z,93971.44
2023-04-12T13:17:52.081Z,93973.22
2023-04-12T13:20:18.836Z,93917.56
2023-04-12T13:22:45.562Z,93979.13
2023-04-12T13:25:12.290Z,93970.22
2023-04-12T13:27:39.165Z,93944.59
2023-04-12T13:30:07.172Z,93992.56
2023-04-12T13:32:33.876Z,93979.13
2023-04-12T13:35:00.642Z,93999.06
2023-04-12T13:37:27.435Z,93971.94
2023-04-12T13:39:54.142Z,93996.56
2023-04-12T13:42:22.339Z,93894.97
2023-04-12T13:44:49.025Z,93994.78
2023-04-12T13:47:17.858Z,93993.31
2023-04-12T13:49:44.766Z,93996.00
2023-04-12T13:52:11.750Z,93959.91
2023-04-12T13:54:38.687Z,93991.47
2023-04-12T13:57:06.072Z,93979.03
2023-04-12T13:59:33.018Z,93984.78
2023-04-12T14:02:00.826Z,93973.59
2023-04-12T14:04:28.723Z,94002.22
2023-04-12T14:06:56.021Z,93938.94
2023-04-12T14:09:30.720Z,93992.53
2023-04-12T14:11:58.798Z,94004.25
2023-04-12T14:14:26.436Z,93994.75
2023-04-12T14:16:57.766Z,93998.28
2023-04-12T14:19:24.953Z,93976.59
2023-04-12T14:21:51.899Z,94001.50
2023-04-12T14:24:19.499Z,93993.06
2023-04-12T14:26:46.909Z,93987.88
2023-04-12T14:29:13.678Z,94000.56
2023-04-12T14:31:40.626Z,94012.47
2023-04-12T14:34:10.988Z,94004.72
2023-04-12T14:36:37.714Z,94006.72
2023-04-12T14:39:06.976Z,94012.94
2023-04-12T14:41:35.822Z,94014.22
2023-04-12T14:44:02.760Z,94012.50
2023-04-12T14:46:30.862Z,94004.53
2023-04-12T14:48:59.738Z,94039.84
2023-04-12T14:51:27.830Z,93994.56
2023-04-12T14:53:54.527Z,94038.06
2023-04-12T14:56:24.668Z,93992.13
2023-04-12T14:58:56.036Z,94000.28
2023-04-12T15:01:23.879Z,93986.84
2023-04-12T15:03:52.372Z,94021.72
2023-04-12T15:06:20.974Z,94030.91
2023-04-12T15:08:49.530Z,94046.81
2023-04-12T15:11:19.183Z,94035.16
2023-04-12T15:13:45.993Z,94039.63
2023-04-12T15:16:12.763Z,93968.03
2023-04-12T15:18:41.628Z,94030.41
2023-04-12T15:21:10.472Z,94047.34
2023-04-12T15:23:38.072Z,94036.41
2023-04-12T15:26:06.744Z,94057.78
2023-04-12T15:28:33.826Z,94057.25
2023-04-12T15:31:01.258Z,94068.19
2023-04-12T15:33:29.273Z,94046.84
2023-04-12T15:35:56.761Z,94067.97
2023-04-12T15:38:26.062Z,94067.97
2023-04-12T15:40:57.174Z,94066.97
2023-04-12T15:43:36.309Z,94076.16
2023-04-12T15:46:12.986Z,94061.22
2023-04-12T15:48:39.655Z,94061.94
2023-04-12T15:51:06.441Z,94048.72
2023-04-12T15:53:33.073Z,94041.53
2023-04-12T15:56:00.963Z,94076.34
2023-04-12T15:58:27.633Z,94051.03
2023-04-12T16:00:54.591Z,94049.47
2023-04-12T16:03:26.333Z,94061.19
2023-04-12T16:05:54.723Z,94082.34
2023-04-12T16:08:22.484Z,94088.81
2023-04-12T16:10:50.493Z,94093.78
2023-04-12T16:13:17.310Z,94061.69
2023-04-12T16:15:44.104Z,94107.69
2023-04-12T16:18:11.190Z,94074.78
2023-04-12T16:20:37.935Z,94090.94
2023-04-12T16:23:05.263Z,94095.88
2023-04-12T16:25:33.373Z,94096.06
2023-04-12T16:28:02.653Z,94101.06
2023-04-12T16:30:32.652Z,94092.75
2023-04-12T16:32:59.869Z,94068.81
2023-04-12T16:35:26.919Z,94101.34
2023-04-12T16:37:54.725Z,94094.41
2023-04-12T16:40:22.149Z,94115.72
2023-04-12T16:42:48.772Z,94094.69
2023-04-12T16:45:15.552Z,94110.41
2023-04-12T16:47:42.603Z,94111.16
2023-04-12T16:50:10.002Z,94101.25
2023-04-12T16:52:37.984Z,94118.16
2023-04-12T16:55:05.118Z,94120.16
2023-04-12T16:57:32.884Z,94127.81
2023-04-12T16:59:59.657Z,94109.91
2023-04-12T17:02:26.924Z,94134.28
2023-04-12T17:04:53.611Z,94136.22
2023-04-12T17:07:20.345Z,94130.31
2023-04-12T17:09:46.991Z,94134.69
2023-04-12T17:12:13.637Z,94119.59
2023-04-12T17:14:40.719Z,94143.72
2023-04-12T17:17:07.500Z,94133.44
2023-04-12T17:19:34.381Z,94099.53
2023-04-12T17:22:01.198Z,94164.28
2023-04-12T17:24:29.255Z,94147.72
2023-04-12T17:26:57.849Z,94168.19
2023-04-12T17:29:24.745Z,94170.75
2023-04-12T17:31:54.243Z,94163.53
2023-04-12T17:34:22.226Z,94165.84
2023-04-12T17:36:49.361Z,94171.44
2023-04-12T17:39:16.373Z,94179.44
2023-04-12T17:41:43.242Z,94173.53
2023-04-12T17:44:09.931Z,94176.25
2023-04-12T17:46:36.740Z,94173.16
2023-04-12T17:49:05.974Z,94181.31
2023-04-12T17:51:33.385Z,94180.78
2023-04-12T17:54:00.949Z,94170.66
2023-04-12T17:56:28.209Z,94189.13
2023-04-12T17:58:55.271Z,94191.66
2023-04-12T18:01:22.394Z,94204.03
2023-04-12T18:03:49.493Z,94201.13
2023-04-12T18:06:18.476Z,94189.69
2023-04-12T18:08:45.352Z,94205.81
2023-04-12T18:11:13.107Z,94210.03
2023-04-12T18:13:39.762Z,94209.66
2023-04-12T18:16:07.273Z,94213.88
2023-04-12T18:18:34.198Z,94209.16
2023-04-12T18:21:06.361Z,94215.19
2023-04-12T18:23:33.335Z,94210.31
2023-04-12T18:26:00.000Z,94217.38
2023-04-12T18:28:27.574Z,94221.88
2023-04-12T18:30:57.168Z,94221.25
2023-04-12T18:33:24.065Z,94215.69
2023-04-12T18:35:51.355Z,94219.94
2023-04-12T18:38:18.730Z,94227.47
2023-04-12T18:40:45.315Z,94222.19
2023-04-12T18:43:12.302Z,94226.28
2023-04-12T18:45:41.939Z,94225.06
2023-04-12T18:48:09.364Z,94214.66
2023-04-12T18:50:39.486Z,94216.44
2023-04-12T18:53:07.069Z,94223.03
2023-04-12T18:55:33.682Z,94221.53
2023-04-12T18:58:00.436Z,94224.53
2023-04-12T19:00:27.890Z,94215.19
2023-04-12T19:02:55.092Z,94207.75
2023-04-12T19:05:22.009Z,94230.50
2023-04-12T19:07:48.861Z,94233.13
2023-04-12T19:10:15.990Z,94237.47
2023-04-12T19:12:42.779Z,94227.34
2023-04-12T19:15:10.698Z,94230.16
2023-04-12T19:17:39.048Z,94237.56
2023-04-12T19:20:07.795Z,94245.59
2023-04-12T19:22:34.540Z,94243.41
2023-04-12T19:25:01.810Z,94248.84
2023-04-12T19:27:29.043Z,94251.41
2023-04-12T19:29:56.544Z,94234.06
2023-04-12T19:32:23.395Z,94239.50
2023-04-12T19:34:50.514Z,94236.31
2023-04-12T19:37:18.085Z,94236.59
2023-04-12T19:39:44.943Z,94231.81
2023-04-12T19:42:12.017Z,94233.22
2023-04-12T19:44:40.424Z,94224.06
2023-04-12T19:47:07.441Z,94224.53
2023-04-12T19:49:35.252Z,94228.63
2023-04-12T19:52:05.601Z,94231.81
2023-04-12T19:54:33.680Z,94220.91
2023-04-12T19:57:00.586Z,94219.19
2023-04-12T19:59:30.999Z,94240.19
2023-04-12T20:01:58.457Z,94241.13
2023-04-12T20:04:25.341Z,94210.06
2023-04-12T20:06:52.717Z,94238.50
2023-04-12T20:09:20.117Z,94237.91
2023-04-12T20:11:47.450Z,94222.13
2023-04-12T20:14:14.360Z,94221.19
2023-04-12T20:16:45.376Z,94235.28
2023-04-12T20:19:14.060Z,94241.59
2023-04-12T20:21:40.814Z,94161.72
2023-04-12T20:24:09.110Z,94240.97
2023-04-12T20:26:36.452Z,94206.28
2023-04-12T20:29:06.982Z,94236.16
2023-04-12T20:31:33.907Z,94221.44
2023-04-12T20:34:00.667Z,94187.34
2023-04-12T20:36:29.358Z,94200.81
2023-04-12T20:38:56.470Z,94232.81
2023-04-12T20:41:24.307Z,94219.41
2023-04-12T20:43:51.127Z,94241.50
2023-04-12T20:46:20.713Z,94249.28
2023-04-12T20:48:49.822Z,94237.88
2023-04-12T20:51:18.736Z,94231.53
2023-04-12T20:53:47.468Z,94236.78
2023-04-12T20:56:15.281Z,94249.50
2023-04-12T20:58:43.045Z,94235.69
2023-04-12T21:01:14.833Z,94257.09
2023-04-12T21:03:43.417Z,94230.19
2023-04-12T21:06:11.078Z,94262.28
2023-04-12T21:08:39.054Z,94182.63
2023-04-12T21:11:06.331Z,94248.56
2023-04-12T21:13:34.616Z,94235.50
2023-04-12T21:16:05.675Z,94236.69
2023-04-12T21:18:34.153Z,94233.53
2023-04-12T21:21:00.898Z,94219.56
2023-04-12T21:23:30.869Z,94234.78
2023-04-12T21:25:57.719Z,94222.94
2023-04-12T21:28:24.492Z,94216.44
2023-04-12T21:30:55.131Z,94233.78
2023-04-12T21:33:25.155Z,94230.16
2023-04-12T21:35:55.652Z,94223.09
2023-04-12T21:38:23.406Z,94231.97
2023-04-12T21:40:51.872Z,94226.09
2023-04-12T21:43:18.917Z,94227.16
2023-04-12T21:45:46.087Z,94237.41
2023-04-12T21:48:14.678Z,94230.19
2023-04-12T21:50:42.112Z,94220.75
2023-04-12T21:53:09.016Z,94230.84
2023-04-12T21:55:36.330Z,94231.13
2023-04-12T21:58:03.749Z,94228.44
2023-04-12T22:00:32.169Z,94235.50
2023-04-12T22:02:59.559Z,94237.91
2023-04-12T22:05:27.984Z,94225.53
2023-04-12T22:07:55.402Z,94246.84
2023-04-12T22:10:22.124Z,94234.81
2023-04-12T22:12:51.239Z,94238.28
2023-04-12T22:15:17.967Z,94236.34
2023-04-12T22:17:45.337Z,94241.44
2023-04-12T22:20:13.100Z,94233.78
2023-04-12T22:22:40.636Z,94242.38
2023-04-12T22:25:08.619Z,94239.22
2023-04-12T22:27:35.303Z,94236.53
2023-04-12T22:30:03.944Z,94236.69
2023-04-12T22:32:32.201Z,94223.00
2023-04-12T22:35:08.219Z,94234.75
2023-04-12T22:37:36.099Z,94216.38
2023-04-12T22:40:05.095Z,94220.31
2023-04-12T22:42:32.035Z,94219.72
2023-04-12T22:44:58.669Z,94230.38
2023-04-12T22:47:26.685Z,94229.78
2023-04-12T22:50:01.058Z,94222.28
2023-04-12T22:52:30.618Z,94223.03
2023-04-12T22:55:00.266Z,94208.28
2023-04-12T22:57:27.471Z,94221.69
2023-04-12T22:59:54.146Z,94215.63
2023-04-12T23:02:20.940Z,94232.50
2023-04-12T23:04:49.219Z,94212.63
2023-04-12T23:07:16.523Z,94232.50
2023-04-12T23:09:45.166Z,94236.84
2023-04-12T23:12:12.641Z,94228.84
2023-04-12T23:14:40.025Z,94229.88
2023-04-12T23:17:07.450Z,94222.34
2023-04-12T23:19:34.562Z,94241.56
2023-04-12T23:22:01.195Z,94228.41
2023-04-12T23:24:27.819Z,94237.50
2023-04-12T23:26:57.833Z,94234.63
2023-04-12T23:29:25.792Z,94238.84
2023-04-12T23:31:52.804Z,94231.88
2023-04-12T23:34:22.150Z,94222.63
2023-04-12T23:36:50.223Z,94224.72
2023-04-12T23:39:18.193Z,94238.84
2023-04-12T23:41:46.624Z,94230.16
2023-04-12T23:44:13.799Z,94228.69
2023-04-12T23:46:40.656Z,94237.63
2023-04-12T23:49:07.395Z,94236.22
2023-04-12T23:51:33.995Z,94237.66
2023-04-12T23:54:00.894Z,94216.63
2023-04-12T23:56:27.833Z,94216.28
2023-04-12T23:58:54.415Z,94231.75
